Hovedside
METAR-TAF:

METAR-TAF

Lufthavner :

Nouakchott internasjonale lufthavn

Nouakchott, Mauritania

breddegrad: 18-18-36N, lengdegrad: 015-58-11W, høyde over havet: 3 m

Gjeldene værobservasjon

Denne rapporten ble laget for 22 minutter siden, klokken 04:30 UTC
Vind 8 kt fra Vest-sørvest
Temperatur 21°C
Luftfuktighet 88%
Trykk 1011 hPa
Sikt: 8000 m

METAR: GQNO 210430Z 25008KT 8000 NSC 21/19 Q1011 NOSIG

Tid: 04:52 (04:52 UTC)

Varsel

Denne rapporten ble laget for 4 timer og 15 minutter siden, klokken 00:37 UTC
Varsel gyldig fra 21. klokken 00 UTC til 22. klokken 06 UTC
Vind 10 kt fra Vest
Sikt: 7000 m

TAF: GQNO 210037Z 2100/2206 28010KT 7000 NSC

Værobservasjoner og værvarsel for over 4000 flyplasser (METAR- og TAF-rapporter).

Tilgjengelige stasjoner er representert av de røde og gule prikkene på kartet.

Hold musepekeren over prikken for å se navnet på stasjonen.

Klikk så for å se værobservasjoner og -varsler.

For å forandre kartet kan du klikke på den grønne knappen med svart kryss for å zoome inn, på den grønne knappen med strek for å zoome ut, eller på de grønne pilene for å se tilstøtende kart.


METAR-TAF: